sensor_id;sensor_type;location;lat;lon;timestamp;temperature;humidity
18163;DHT22;9206;50.994;4.538;2022-07-29T07:09:16;28.20;99.90
18163;DHT22;9206;50.994;4.538;2022-07-29T07:11:46;28.60;99.90
18163;DHT22;9206;50.994;4.538;2022-07-29T07:14:19;28.70;99.90
18163;DHT22;9206;50.994;4.538;2022-07-29T07:16:46;28.60;99.90
18163;DHT22;9206;50.994;4.538;2022-07-29T07:19:13;28.80;99.90
18163;DHT22;9206;50.994;4.538;2022-07-29T07:21:46;28.90;99.90
18163;DHT22;9206;50.994;4.538;2022-07-29T07:24:13;29.40;99.90
18163;DHT22;9206;50.994;4.538;2022-07-29T07:26:45;29.70;99.90
18163;DHT22;9206;50.994;4.538;2022-07-29T07:29:12;30.00;99.90
18163;DHT22;9206;50.994;4.538;2022-07-29T07:31:48;30.00;99.90
18163;DHT22;9206;50.994;4.538;2022-07-29T07:34:23;30.30;99.90
18163;DHT22;9206;50.994;4.538;2022-07-29T07:37:01;30.70;99.90
18163;DHT22;9206;50.994;4.538;2022-07-29T07:39:28;30.80;99.90
18163;DHT22;9206;50.994;4.538;2022-07-29T07:41:59;30.60;99.90
18163;DHT22;9206;50.994;4.538;2022-07-29T07:44:34;31.00;99.90
18163;DHT22;9206;50.994;4.538;2022-07-29T07:47:02;31.40;99.90
18163;DHT22;9206;50.994;4.538;2022-07-29T07:49:32;31.80;99.90
18163;DHT22;9206;50.994;4.538;2022-07-29T07:52:05;32.00;99.90
18163;DHT22;9206;50.994;4.538;2022-07-29T07:54:38;32.20;99.90
18163;DHT22;9206;50.994;4.538;2022-07-29T07:57:12;32.30;99.90
18163;DHT22;9206;50.994;4.538;2022-07-29T07:59:40;32.30;99.90
18163;DHT22;9206;50.994;4.538;2022-07-29T08:02:10;31.90;99.90
18163;DHT22;9206;50.994;4.538;2022-07-29T08:04:47;31.60;99.90
18163;DHT22;9206;50.994;4.538;2022-07-29T08:07:14;31.60;99.90
18163;DHT22;9206;50.994;4.538;2022-07-29T08:09:44;31.70;99.90
18163;DHT22;9206;50.994;4.538;2022-07-29T08:12:14;32.10;99.90
18163;DHT22;9206;50.994;4.538;2022-07-29T08:14:47;32.10;99.90
18163;DHT22;9206;50.994;4.538;2022-07-29T08:17:14;32.40;99.90
18163;DHT22;9206;50.994;4.538;2022-07-29T08:19:47;32.60;99.90
18163;DHT22;9206;50.994;4.538;2022-07-29T08:22:18;32.60;99.90
18163;DHT22;9206;50.994;4.538;2022-07-29T08:24:45;32.60;99.90
18163;DHT22;9206;50.994;4.538;2022-07-29T08:27:20;32.90;99.90
18163;DHT22;9206;50.994;4.538;2022-07-29T08:29:48;33.20;99.90
18163;DHT22;9206;50.994;4.538;2022-07-29T08:32:15;33.40;99.90
18163;DHT22;9206;50.994;4.538;2022-07-29T08:34:43;33.30;99.90
18163;DHT22;9206;50.994;4.538;2022-07-29T08:37:12;33.50;99.90
18163;DHT22;9206;50.994;4.538;2022-07-29T08:39:46;33.30;99.90
18163;DHT22;9206;50.994;4.538;2022-07-29T08:42:15;33.40;99.90
18163;DHT22;9206;50.994;4.538;2022-07-29T08:44:47;33.50;99.90
18163;DHT22;9206;50.994;4.538;2022-07-29T08:47:14;33.30;99.90
18163;DHT22;9206;50.994;4.538;2022-07-29T08:49:44;33.30;99.90
18163;DHT22;9206;50.994;4.538;2022-07-29T08:52:20;33.50;99.90
18163;DHT22;9206;50.994;4.538;2022-07-29T08:54:49;33.30;99.90
18163;DHT22;9206;50.994;4.538;2022-07-29T08:57:20;33.20;99.90
18163;DHT22;9206;50.994;4.538;2022-07-29T08:59:50;33.70;99.90
18163;DHT22;9206;50.994;4.538;2022-07-29T09:02:40;34.00;99.90
18163;DHT22;9206;50.994;4.538;2022-07-29T09:05:10;34.10;99.90
18163;DHT22;9206;50.994;4.538;2022-07-29T09:07:41;34.10;99.90
18163;DHT22;9206;50.994;4.538;2022-07-29T09:10:09;34.10;99.90
18163;DHT22;9206;50.994;4.538;2022-07-29T09:12:40;33.70;99.90
18163;DHT22;9206;50.994;4.538;2022-07-29T09:15:19;33.50;99.90
18163;DHT22;9206;50.994;4.538;2022-07-29T09:17:50;33.90;99.90
18163;DHT22;9206;50.994;4.538;2022-07-29T09:20:25;34.20;99.90
18163;DHT22;9206;50.994;4.538;2022-07-29T09:23:22;34.60;99.90
18163;DHT22;9206;50.994;4.538;2022-07-29T09:25:49;34.70;99.90
18163;DHT22;9206;50.994;4.538;2022-07-29T09:28:19;34.30;99.90
18163;DHT22;9206;50.994;4.538;2022-07-29T09:30:57;34.70;99.90
18163;DHT22;9206;50.994;4.538;2022-07-29T09:33:32;35.60;98.50
18163;DHT22;9206;50.994;4.538;2022-07-29T09:36:04;36.00;98.80
18163;DHT22;9206;50.994;4.538;2022-07-29T09:38:34;36.00;99.90
18163;DHT22;9206;50.994;4.538;2022-07-29T09:41:05;36.40;98.20
18163;DHT22;9206;50.994;4.538;2022-07-29T09:43:39;35.90;98.10
18163;DHT22;9206;50.994;4.538;2022-07-29T09:46:15;35.60;98.50
18163;DHT22;9206;50.994;4.538;2022-07-29T09:48:45;36.00;96.90
18163;DHT22;9206;50.994;4.538;2022-07-29T09:51:38;35.60;97.30
18163;DHT22;9206;50.994;4.538;2022-07-29T09:54:30;35.40;97.40
18163;DHT22;9206;50.994;4.538;2022-07-29T09:57:03;35.00;98.00
18163;DHT22;9206;50.994;4.538;2022-07-29T09:59:31;35.20;97.40
18163;DHT22;9206;50.994;4.538;2022-07-29T10:02:03;35.40;96.80
18163;DHT22;9206;50.994;4.538;2022-07-29T10:04:40;35.10;97.50
18163;DHT22;9206;50.994;4.538;2022-07-29T10:07:16;35.40;97.80
18163;DHT22;9206;50.994;4.538;2022-07-29T10:09:51;35.70;95.80
18163;DHT22;9206;50.994;4.538;2022-07-29T10:12:20;35.90;96.30
18163;DHT22;9206;50.994;4.538;2022-07-29T10:14:48;36.00;96.70
18163;DHT22;9206;50.994;4.538;2022-07-29T10:17:19;36.20;95.70
18163;DHT22;9206;50.994;4.538;2022-07-29T10:19:48;36.30;96.40
18163;DHT22;9206;50.994;4.538;2022-07-29T10:22:24;36.90;96.50
18163;DHT22;9206;50.994;4.538;2022-07-29T10:24:52;36.40;95.10
18163;DHT22;9206;50.994;4.538;2022-07-29T10:27:22;36.80;95.80
18163;DHT22;9206;50.994;4.538;2022-07-29T10:29:52;36.80;95.00
18163;DHT22;9206;50.994;4.538;2022-07-29T10:32:34;37.00;95.90
18163;DHT22;9206;50.994;4.538;2022-07-29T10:35:19;37.30;94.80
18163;DHT22;9206;50.994;4.538;2022-07-29T10:38:07;37.30;95.30
18163;DHT22;9206;50.994;4.538;2022-07-29T10:40:57;37.70;94.20
18163;DHT22;9206;50.994;4.538;2022-07-29T10:43:49;37.90;93.70
18163;DHT22;9206;50.994;4.538;2022-07-29T10:46:29;37.40;93.50
18163;DHT22;9206;50.994;4.538;2022-07-29T10:49:11;36.40;94.20
18163;DHT22;9206;50.994;4.538;2022-07-29T10:52:02;36.50;93.30
18163;DHT22;9206;50.994;4.538;2022-07-29T10:54:40;36.70;92.10
18163;DHT22;9206;50.994;4.538;2022-07-29T10:57:23;36.60;93.20
18163;DHT22;9206;50.994;4.538;2022-07-29T11:00:30;36.40;94.50
18163;DHT22;9206;50.994;4.538;2022-07-29T11:02:59;36.20;93.90
18163;DHT22;9206;50.994;4.538;2022-07-29T11:05:51;36.40;94.00
18163;DHT22;9206;50.994;4.538;2022-07-29T11:08:23;36.30;93.50
18163;DHT22;9206;50.994;4.538;2022-07-29T11:10:53;36.50;94.00
18163;DHT22;9206;50.994;4.538;2022-07-29T11:13:44;37.10;93.70
18163;DHT22;9206;50.994;4.538;2022-07-29T11:16:12;37.00;91.70
18163;DHT22;9206;50.994;4.538;2022-07-29T11:21:45;36.40;90.40
18163;DHT22;9206;50.994;4.538;2022-07-29T11:24:18;35.70;92.30
18163;DHT22;9206;50.994;4.538;2022-07-29T11:27:12;35.10;92.20
18163;DHT22;9206;50.994;4.538;2022-07-29T11:29:58;35.30;92.50
18163;DHT22;9206;50.994;4.538;2022-07-29T11:32:36;35.90;92.40
18163;DHT22;9206;50.994;4.538;2022-07-29T11:35:14;35.90;92.10
18163;DHT22;9206;50.994;4.538;2022-07-29T11:38:23;36.10;91.40
18163;DHT22;9206;50.994;4.538;2022-07-29T11:41:20;35.90;91.50
18163;DHT22;9206;50.994;4.538;2022-07-29T11:44:17;35.80;91.60
18163;DHT22;9206;50.994;4.538;2022-07-29T11:46:54;35.60;91.60
18163;DHT22;9206;50.994;4.538;2022-07-29T11:49:29;35.50;92.50
18163;DHT22;9206;50.994;4.538;2022-07-29T11:52:17;35.20;91.30
18163;DHT22;9206;50.994;4.538;2022-07-29T11:55:24;35.10;91.70
18163;DHT22;9206;50.994;4.538;2022-07-29T11:58:30;35.40;93.70
18163;DHT22;9206;50.994;4.538;2022-07-29T12:02:01;35.60;91.60
18163;DHT22;9206;50.994;4.538;2022-07-29T12:05:29;35.70;91.50
18163;DHT22;9206;50.994;4.538;2022-07-29T12:11:36;34.60;91.90
18163;DHT22;9206;50.994;4.538;2022-07-29T12:14:10;34.20;90.70
18163;DHT22;9206;50.994;4.538;2022-07-29T12:21:14;34.10;91.00
18163;DHT22;9206;50.994;4.538;2022-07-29T12:23:58;33.50;91.20
18163;DHT22;9206;50.994;4.538;2022-07-29T12:26:38;33.50;90.00
18163;DHT22;9206;50.994;4.538;2022-07-29T12:29:22;33.30;90.90
18163;DHT22;9206;50.994;4.538;2022-07-29T12:31:56;32.90;90.60
18163;DHT22;9206;50.994;4.538;2022-07-29T12:34:30;32.00;90.40
18163;DHT22;9206;50.994;4.538;2022-07-29T12:36:59;32.00;92.70
18163;DHT22;9206;50.994;4.538;2022-07-29T12:39:29;32.40;90.70
18163;DHT22;9206;50.994;4.538;2022-07-29T12:42:26;32.70;91.20
18163;DHT22;9206;50.994;4.538;2022-07-29T12:45:38;32.70;92.70
18163;DHT22;9206;50.994;4.538;2022-07-29T12:48:49;32.30;91.40
18163;DHT22;9206;50.994;4.538;2022-07-29T13:11:36;30.90;93.00
18163;DHT22;9206;50.994;4.538;2022-07-29T13:14:10;30.60;92.50
18163;DHT22;9206;50.994;4.538;2022-07-29T13:20:12;30.50;93.70
18163;DHT22;9206;50.994;4.538;2022-07-29T13:22:49;30.10;92.80
18163;DHT22;9206;50.994;4.538;2022-07-29T13:25:36;29.90;93.00
18163;DHT22;9206;50.994;4.538;2022-07-29T13:28:41;30.10;94.80
18163;DHT22;9206;50.994;4.538;2022-07-29T13:31:30;31.00;94.80
18163;DHT22;9206;50.994;4.538;2022-07-29T13:34:29;31.50;94.80
18163;DHT22;9206;50.994;4.538;2022-07-29T13:37:39;31.80;94.70
18163;DHT22;9206;50.994;4.538;2022-07-29T13:43:43;31.40;93.10
18163;DHT22;9206;50.994;4.538;2022-07-29T14:01:18;29.80;93.70
18163;DHT22;9206;50.994;4.538;2022-07-29T14:03:59;29.80;93.30
18163;DHT22;9206;50.994;4.538;2022-07-29T14:09:32;29.80;93.80
18163;DHT22;9206;50.994;4.538;2022-07-29T14:12:09;30.10;94.80
18163;DHT22;9206;50.994;4.538;2022-07-29T14:15:04;30.40;93.90
18163;DHT22;9206;50.994;4.538;2022-07-29T14:21:31;30.30;93.70
18163;DHT22;9206;50.994;4.538;2022-07-29T14:24:20;30.20;94.00
18163;DHT22;9206;50.994;4.538;2022-07-29T14:26:59;30.70;93.20
18163;DHT22;9206;50.994;4.538;2022-07-29T14:29:39;30.90;93.90
18163;DHT22;9206;50.994;4.538;2022-07-29T14:32:40;30.70;92.60
18163;DHT22;9206;50.994;4.538;2022-07-29T14:38:26;30.60;92.70
18163;DHT22;9206;50.994;4.538;2022-07-29T14:41:19;30.80;93.00
18163;DHT22;9206;50.994;4.538;2022-07-29T14:44:09;30.60;91.60
18163;DHT22;9206;50.994;4.538;2022-07-29T14:46:58;30.70;91.80
18163;DHT22;9206;50.994;4.538;2022-07-29T14:49:30;31.00;92.80
18163;DHT22;9206;50.994;4.538;2022-07-29T14:55:32;31.20;92.50
18163;DHT22;9206;50.994;4.538;2022-07-29T14:58:05;31.30;91.10
18163;DHT22;9206;50.994;4.538;2022-07-29T15:00:43;31.00;91.30
18163;DHT22;9206;50.994;4.538;2022-07-29T15:03:43;30.60;91.30
18163;DHT22;9206;50.994;4.538;2022-07-29T15:06:25;30.80;91.50
18163;DHT22;9206;50.994;4.538;2022-07-29T15:09:17;30.90;92.10
18163;DHT22;9206;50.994;4.538;2022-07-29T15:11:49;31.10;93.40
18163;DHT22;9206;50.994;4.538;2022-07-29T15:14:20;31.20;93.40
18163;DHT22;9206;50.994;4.538;2022-07-29T15:17:16;30.90;92.70
18163;DHT22;9206;50.994;4.538;2022-07-29T15:19:57;30.70;92.50
18163;DHT22;9206;50.994;4.538;2022-07-29T15:22:33;30.70;92.60
18163;DHT22;9206;50.994;4.538;2022-07-29T15:25:01;30.70;92.60
18163;DHT22;9206;50.994;4.538;2022-07-29T15:27:46;30.70;92.20
18163;DHT22;9206;50.994;4.538;2022-07-29T15:30:21;30.40;92.80
18163;DHT22;9206;50.994;4.538;2022-07-29T15:33:08;30.40;92.60
18163;DHT22;9206;50.994;4.538;2022-07-29T15:35:38;30.20;92.90
18163;DHT22;9206;50.994;4.538;2022-07-29T16:44:08;27.80;94.50
18163;DHT22;9206;50.994;4.538;2022-07-29T16:50:33;27.70;94.50
18163;DHT22;9206;50.994;4.538;2022-07-29T16:56:30;27.40;94.90
18163;DHT22;9206;50.994;4.538;2022-07-29T16:59:36;27.20;94.70
18163;DHT22;9206;50.994;4.538;2022-07-29T17:02:33;27.00;95.20
18163;DHT22;9206;50.994;4.538;2022-07-29T17:05:09;26.90;95.70
18163;DHT22;9206;50.994;4.538;2022-07-29T17:07:47;26.90;96.20
18163;DHT22;9206;50.994;4.538;2022-07-29T17:10:32;26.80;95.80
18163;DHT22;9206;50.994;4.538;2022-07-29T18:15:14;25.00;98.50
18163;DHT22;9206;50.994;4.538;2022-07-29T18:17:45;24.80;98.70
18163;DHT22;9206;50.994;4.538;2022-07-29T18:20:13;24.60;99.00
18163;DHT22;9206;50.994;4.538;2022-07-29T18:22:49;24.50;99.00
18163;DHT22;9206;50.994;4.538;2022-07-29T18:25:20;24.40;99.30
18163;DHT22;9206;50.994;4.538;2022-07-29T18:28:13;24.30;99.50
18163;DHT22;9206;50.994;4.538;2022-07-29T18:30:50;24.30;99.90
18163;DHT22;9206;50.994;4.538;2022-07-29T18:33:25;24.30;99.80
18163;DHT22;9206;50.994;4.538;2022-07-29T18:35:54;24.30;99.80
18163;DHT22;9206;50.994;4.538;2022-07-29T18:41:42;24.20;99.90
18163;DHT22;9206;50.994;4.538;2022-07-29T18:44:44;24.20;99.90
18163;DHT22;9206;50.994;4.538;2022-07-29T18:47:15;24.20;99.90
18163;DHT22;9206;50.994;4.538;2022-07-29T18:50:00;24.20;99.90
18163;DHT22;9206;50.994;4.538;2022-07-29T18:52:44;24.20;99.90
18163;DHT22;9206;50.994;4.538;2022-07-29T18:58:38;24.10;99.90
18163;DHT22;9206;50.994;4.538;2022-07-29T19:01:16;24.00;99.90
18163;DHT22;9206;50.994;4.538;2022-07-29T19:42:55;22.10;99.90
18163;DHT22;9206;50.994;4.538;2022-07-29T19:45:38;22.00;99.90
18163;DHT22;9206;50.994;4.538;2022-07-29T19:48:08;21.90;99.90
18163;DHT22;9206;50.994;4.538;2022-07-29T19:50:35;21.80;99.90
18163;DHT22;9206;50.994;4.538;2022-07-29T19:53:04;21.80;99.90
18163;DHT22;9206;50.994;4.538;2022-07-29T19:55:33;21.70;99.90
18163;DHT22;9206;50.994;4.538;2022-07-29T19:58:07;21.60;99.90
18163;DHT22;9206;50.994;4.538;2022-07-29T20:00:40;21.60;99.90
18163;DHT22;9206;50.994;4.538;2022-07-29T20:03:13;21.40;99.90
18163;DHT22;9206;50.994;4.538;2022-07-29T20:05:43;21.40;99.90
18163;DHT22;9206;50.994;4.538;2022-07-29T20:08:14;21.30;99.90
18163;DHT22;9206;50.994;4.538;2022-07-29T20:10:42;21.20;99.90
18163;DHT22;9206;50.994;4.538;2022-07-29T20:13:16;21.20;99.90
18163;DHT22;9206;50.994;4.538;2022-07-29T20:15:46;21.20;99.90
18163;DHT22;9206;50.994;4.538;2022-07-29T20:18:22;21.10;99.90
18163;DHT22;9206;50.994;4.538;2022-07-29T20:20:50;21.10;99.90
18163;DHT22;9206;50.994;4.538;2022-07-29T20:23:19;21.00;99.90
18163;DHT22;9206;50.994;4.538;2022-07-29T20:25:49;20.90;99.90
18163;DHT22;9206;50.994;4.538;2022-07-29T20:28:18;20.90;99.90
18163;DHT22;9206;50.994;4.538;2022-07-29T20:30:51;20.80;99.90
18163;DHT22;9206;50.994;4.538;2022-07-29T20:33:21;20.80;99.90
18163;DHT22;9206;50.994;4.538;2022-07-29T20:35:54;20.80;99.90
18163;DHT22;9206;50.994;4.538;2022-07-29T20:38:28;20.70;99.90
18163;DHT22;9206;50.994;4.538;2022-07-29T20:40:58;20.60;99.90
18163;DHT22;9206;50.994;4.538;2022-07-29T20:43:26;20.50;99.90
18163;DHT22;9206;50.994;4.538;2022-07-29T20:45:54;20.50;99.90
18163;DHT22;9206;50.994;4.538;2022-07-29T20:48:21;20.40;99.90
18163;DHT22;9206;50.994;4.538;2022-07-29T20:50:48;20.40;99.90
18163;DHT22;9206;50.994;4.538;2022-07-29T20:53:16;20.30;99.90
18163;DHT22;9206;50.994;4.538;2022-07-29T20:55:45;20.30;99.90
